Portada
METAR-TAF:

METAR-TAF

Aeroports :

Txungking, Xina

latitud: 29-31N, longitud: 106-29E, altitud: 351 m

Observació

L'informe es va fer fa 1 hora i 1 minuts, a les 06:00 UTC
Vent 2 kt amb direcció variable
Temperatura 29°C
Humitat 74%
Pressió 1002 hPa
Visibilitat: 8000 m
Núvols disperses a una alçada de 2300 ft

METAR: ZUCK 080600Z VRB01MPS 8000 SCT023 29/24 Q1002 NOSIG

Hora: 15:01 (07:01 UTC)

Pronòstic

L'informe es va fer fa 3 hores i 58 minuts, a les 03:03 UTC
Pronòstic vàlid del 08 a les 06 UTC al 09 a les 06 UTC
Vent 6 kt del Est/Nord-Est
Visibilitat: 6000 m
Núvols disperses a una alçada de 2000 ft
Cel cobert a una alçada de 5000 ft

TAF: ZUCK 080303Z 0806/0906 06003MPS 6000 SCT020 OVC050 TX29/0807Z TN24/0822Z

Observacions i pronòstics meteorològics de més de 4000 aeroports (METAR i TAF).

Les estacions disponibles són els punts grocs i vermells al mapa.

Posi el ratolí al punt desitjat per veure el nom de l'estació.

Feu clic per veure les observacions i els pronòstics meteorològics.

Per canviar el mapa: feu clic els botons verds amb una creu de color negre per apropar; al botó verd amb un guió per allunyar la imatge; o en les fletxes verdes per a mapes adjacents.


METAR-TAF: